sensor_id;sensor_type;location;lat;lon;timestamp;P1;durP1;ratioP1;P2;durP2;ratioP2
11588;SDS011;5850;51.360;12.362;2023-03-25T00:01:15;7.73;;;3.33;;
11588;SDS011;5850;51.360;12.362;2023-03-25T00:03:44;5.03;;;2.90;;
11588;SDS011;5850;51.360;12.362;2023-03-25T00:06:16;4.17;;;2.87;;
11588;SDS011;5850;51.360;12.362;2023-03-25T00:08:44;3.83;;;3.17;;
11588;SDS011;5850;51.360;12.362;2023-03-25T00:11:12;4.00;;;2.90;;
11588;SDS011;5850;51.360;12.362;2023-03-25T00:13:41;5.30;;;3.73;;
11588;SDS011;5850;51.360;12.362;2023-03-25T00:16:09;3.73;;;3.00;;
11588;SDS011;5850;51.360;12.362;2023-03-25T00:18:38;4.97;;;2.90;;
11588;SDS011;5850;51.360;12.362;2023-03-25T00:21:07;5.63;;;2.93;;
11588;SDS011;5850;51.360;12.362;2023-03-25T00:23:37;6.10;;;3.23;;
11588;SDS011;5850;51.360;12.362;2023-03-25T00:26:06;4.23;;;2.80;;
11588;SDS011;5850;51.360;12.362;2023-03-25T00:28:36;4.30;;;3.17;;
11588;SDS011;5850;51.360;12.362;2023-03-25T00:31:06;6.63;;;3.13;;
11588;SDS011;5850;51.360;12.362;2023-03-25T01:10:36;4.37;;;2.80;;
11588;SDS011;5850;51.360;12.362;2023-03-25T01:13:04;5.50;;;2.80;;
11588;SDS011;5850;51.360;12.362;2023-03-25T01:15:33;4.10;;;3.33;;
11588;SDS011;5850;51.360;12.362;2023-03-25T01:18:01;5.83;;;2.97;;
11588;SDS011;5850;51.360;12.362;2023-03-25T01:20:29;3.73;;;2.77;;
11588;SDS011;5850;51.360;12.362;2023-03-25T01:22:58;4.47;;;2.50;;
11588;SDS011;5850;51.360;12.362;2023-03-25T01:25:26;4.63;;;2.50;;
11588;SDS011;5850;51.360;12.362;2023-03-25T01:27:55;6.50;;;2.60;;
11588;SDS011;5850;51.360;12.362;2023-03-25T01:30:23;4.83;;;2.43;;
11588;SDS011;5850;51.360;12.362;2023-03-25T01:32:51;3.53;;;2.50;;
11588;SDS011;5850;51.360;12.362;2023-03-25T01:35:20;4.87;;;2.70;;
11588;SDS011;5850;51.360;12.362;2023-03-25T01:37:48;5.67;;;2.33;;
11588;SDS011;5850;51.360;12.362;2023-03-25T01:40:20;2.87;;;2.40;;
11588;SDS011;5850;51.360;12.362;2023-03-25T01:42:56;3.73;;;2.30;;
11588;SDS011;5850;51.360;12.362;2023-03-25T01:48:17;3.13;;;2.20;;
11588;SDS011;5850;51.360;12.362;2023-03-25T01:50:59;3.93;;;2.30;;
11588;SDS011;5850;51.360;12.362;2023-03-25T01:53:53;4.63;;;2.30;;
11588;SDS011;5850;51.360;12.362;2023-03-25T01:56:23;7.10;;;2.67;;
11588;SDS011;5850;51.360;12.362;2023-03-25T01:58:56;3.03;;;2.00;;
11588;SDS011;5850;51.360;12.362;2023-03-25T02:01:28;4.30;;;2.50;;
11588;SDS011;5850;51.360;12.362;2023-03-25T02:03:56;3.97;;;1.90;;
11588;SDS011;5850;51.360;12.362;2023-03-25T02:09:18;3.50;;;2.00;;
11588;SDS011;5850;51.360;12.362;2023-03-25T02:11:49;5.93;;;1.90;;
11588;SDS011;5850;51.360;12.362;2023-03-25T02:14:21;1.60;;;1.50;;
11588;SDS011;5850;51.360;12.362;2023-03-25T02:16:58;2.90;;;2.20;;
11588;SDS011;5850;51.360;12.362;2023-03-25T02:39:09;5.83;;;2.43;;
11588;SDS011;5850;51.360;12.362;2023-03-25T02:41:47;3.87;;;1.87;;
11588;SDS011;5850;51.360;12.362;2023-03-25T02:47:10;4.53;;;1.93;;
11588;SDS011;5850;51.360;12.362;2023-03-25T02:49:46;7.27;;;2.07;;
11588;SDS011;5850;51.360;12.362;2023-03-25T02:52:25;3.10;;;2.00;;
11588;SDS011;5850;51.360;12.362;2023-03-25T02:54:59;5.10;;;2.33;;
11588;SDS011;5850;51.360;12.362;2023-03-25T02:57:31;6.33;;;2.00;;
11588;SDS011;5850;51.360;12.362;2023-03-25T03:00:02;7.23;;;2.73;;
11588;SDS011;5850;51.360;12.362;2023-03-25T03:02:44;3.63;;;2.37;;
11588;SDS011;5850;51.360;12.362;2023-03-25T03:05:35;4.10;;;2.13;;
11588;SDS011;5850;51.360;12.362;2023-03-25T03:13:43;2.80;;;2.50;;
11588;SDS011;5850;51.360;12.362;2023-03-25T03:16:48;5.53;;;2.70;;
11588;SDS011;5850;51.360;12.362;2023-03-25T03:19:35;6.50;;;2.27;;
11588;SDS011;5850;51.360;12.362;2023-03-25T03:22:25;6.47;;;3.00;;
11588;SDS011;5850;51.360;12.362;2023-03-25T03:28:24;4.83;;;2.53;;
11588;SDS011;5850;51.360;12.362;2023-03-25T03:31:23;5.67;;;3.20;;
11588;SDS011;5850;51.360;12.362;2023-03-25T03:34:26;5.73;;;2.57;;
11588;SDS011;5850;51.360;12.362;2023-03-25T03:37:08;4.90;;;2.33;;
11588;SDS011;5850;51.360;12.362;2023-03-25T03:39:46;3.97;;;2.20;;
11588;SDS011;5850;51.360;12.362;2023-03-25T03:42:20;3.77;;;2.47;;
11588;SDS011;5850;51.360;12.362;2023-03-25T03:45:16;3.03;;;2.20;;
11588;SDS011;5850;51.360;12.362;2023-03-25T03:47:54;3.67;;;2.43;;
11588;SDS011;5850;51.360;12.362;2023-03-25T03:50:28;3.63;;;2.23;;
11588;SDS011;5850;51.360;12.362;2023-03-25T03:55:34;2.90;;;2.17;;
11588;SDS011;5850;51.360;12.362;2023-03-25T03:58:13;4.10;;;2.00;;
11588;SDS011;5850;51.360;12.362;2023-03-25T04:03:57;3.13;;;1.90;;
11588;SDS011;5850;51.360;12.362;2023-03-25T04:06:38;3.67;;;2.27;;
11588;SDS011;5850;51.360;12.362;2023-03-25T04:09:26;3.63;;;1.60;;
11588;SDS011;5850;51.360;12.362;2023-03-25T04:12:25;2.57;;;1.50;;
11588;SDS011;5850;51.360;12.362;2023-03-25T04:14:56;1.67;;;1.10;;
11588;SDS011;5850;51.360;12.362;2023-03-25T04:17:28;3.07;;;1.80;;
11588;SDS011;5850;51.360;12.362;2023-03-25T04:19:58;2.37;;;1.20;;
11588;SDS011;5850;51.360;12.362;2023-03-25T04:22:34;2.00;;;1.30;;
11588;SDS011;5850;51.360;12.362;2023-03-25T04:25:04;1.90;;;1.10;;
11588;SDS011;5850;51.360;12.362;2023-03-25T04:27:33;1.30;;;0.97;;
11588;SDS011;5850;51.360;12.362;2023-03-25T04:30:06;0.97;;;0.90;;
11588;SDS011;5850;51.360;12.362;2023-03-25T04:32:35;1.23;;;1.00;;
11588;SDS011;5850;51.360;12.362;2023-03-25T04:35:04;0.70;;;0.70;;
11588;SDS011;5850;51.360;12.362;2023-03-25T04:37:34;3.10;;;1.00;;
11588;SDS011;5850;51.360;12.362;2023-03-25T04:40:03;1.87;;;0.80;;
11588;SDS011;5850;51.360;12.362;2023-03-25T04:42:33;1.17;;;0.57;;
11588;SDS011;5850;51.360;12.362;2023-03-25T04:45:03;1.17;;;0.70;;
11588;SDS011;5850;51.360;12.362;2023-03-25T04:47:32;1.07;;;0.80;;
11588;SDS011;5850;51.360;12.362;2023-03-25T04:50:01;1.93;;;0.80;;
11588;SDS011;5850;51.360;12.362;2023-03-25T04:52:29;1.50;;;0.77;;
11588;SDS011;5850;51.360;12.362;2023-03-25T04:55:00;1.17;;;0.70;;
11588;SDS011;5850;51.360;12.362;2023-03-25T04:57:30;0.90;;;0.70;;
11588;SDS011;5850;51.360;12.362;2023-03-25T04:59:58;1.60;;;0.50;;
11588;SDS011;5850;51.360;12.362;2023-03-25T05:02:27;1.07;;;0.67;;
11588;SDS011;5850;51.360;12.362;2023-03-25T05:04:56;1.17;;;0.87;;
11588;SDS011;5850;51.360;12.362;2023-03-25T05:07:30;1.23;;;0.60;;
11588;SDS011;5850;51.360;12.362;2023-03-25T05:09:58;0.93;;;0.60;;
11588;SDS011;5850;51.360;12.362;2023-03-25T05:12:27;0.67;;;0.67;;
11588;SDS011;5850;51.360;12.362;2023-03-25T05:14:55;1.47;;;0.60;;
11588;SDS011;5850;51.360;12.362;2023-03-25T05:17:24;1.50;;;0.73;;
11588;SDS011;5850;51.360;12.362;2023-03-25T05:19:55;0.60;;;0.60;;
11588;SDS011;5850;51.360;12.362;2023-03-25T05:22:23;1.23;;;0.67;;
11588;SDS011;5850;51.360;12.362;2023-03-25T05:24:54;1.73;;;0.70;;
11588;SDS011;5850;51.360;12.362;2023-03-25T05:27:23;1.40;;;0.70;;
11588;SDS011;5850;51.360;12.362;2023-03-25T05:29:51;0.70;;;0.70;;
11588;SDS011;5850;51.360;12.362;2023-03-25T05:32:23;1.70;;;0.60;;
11588;SDS011;5850;51.360;12.362;2023-03-25T05:34:55;0.70;;;0.70;;
11588;SDS011;5850;51.360;12.362;2023-03-25T05:37:23;1.40;;;0.90;;
11588;SDS011;5850;51.360;12.362;2023-03-25T05:39:53;1.50;;;0.73;;
11588;SDS011;5850;51.360;12.362;2023-03-25T05:42:21;1.00;;;0.60;;
11588;SDS011;5850;51.360;12.362;2023-03-25T05:44:50;1.03;;;0.70;;
11588;SDS011;5850;51.360;12.362;2023-03-25T05:47:20;2.20;;;0.83;;
11588;SDS011;5850;51.360;12.362;2023-03-25T05:49:51;0.60;;;0.60;;
11588;SDS011;5850;51.360;12.362;2023-03-25T05:52:20;0.93;;;0.83;;
11588;SDS011;5850;51.360;12.362;2023-03-25T05:54:49;1.23;;;0.90;;
11588;SDS011;5850;51.360;12.362;2023-03-25T05:57:18;2.40;;;1.07;;
11588;SDS011;5850;51.360;12.362;2023-03-25T05:59:46;1.00;;;0.90;;
11588;SDS011;5850;51.360;12.362;2023-03-25T06:02:15;2.77;;;1.10;;
11588;SDS011;5850;51.360;12.362;2023-03-25T06:07:31;2.53;;;1.03;;
11588;SDS011;5850;51.360;12.362;2023-03-25T06:10:00;1.50;;;0.80;;
11588;SDS011;5850;51.360;12.362;2023-03-25T06:12:29;1.70;;;0.80;;
11588;SDS011;5850;51.360;12.362;2023-03-25T06:14:58;3.67;;;1.00;;
11588;SDS011;5850;51.360;12.362;2023-03-25T06:17:26;2.60;;;0.80;;
11588;SDS011;5850;51.360;12.362;2023-03-25T06:19:55;2.03;;;0.70;;
11588;SDS011;5850;51.360;12.362;2023-03-25T06:22:25;2.57;;;0.77;;
11588;SDS011;5850;51.360;12.362;2023-03-25T06:24:54;2.90;;;0.87;;
11588;SDS011;5850;51.360;12.362;2023-03-25T06:27:22;2.17;;;0.97;;
11588;SDS011;5850;51.360;12.362;2023-03-25T06:29:52;4.17;;;0.83;;
11588;SDS011;5850;51.360;12.362;2023-03-25T06:32:20;3.53;;;1.17;;
11588;SDS011;5850;51.360;12.362;2023-03-25T06:34:51;1.63;;;0.90;;
11588;SDS011;5850;51.360;12.362;2023-03-25T06:37:20;1.13;;;0.60;;
11588;SDS011;5850;51.360;12.362;2023-03-25T06:39:51;1.27;;;0.80;;
11588;SDS011;5850;51.360;12.362;2023-03-25T06:42:25;2.10;;;0.83;;
11588;SDS011;5850;51.360;12.362;2023-03-25T06:44:54;2.90;;;0.70;;
11588;SDS011;5850;51.360;12.362;2023-03-25T06:47:22;2.30;;;0.90;;
11588;SDS011;5850;51.360;12.362;2023-03-25T06:49:51;1.97;;;0.80;;
11588;SDS011;5850;51.360;12.362;2023-03-25T06:52:19;3.40;;;1.07;;
11588;SDS011;5850;51.360;12.362;2023-03-25T06:54:48;2.60;;;1.00;;
11588;SDS011;5850;51.360;12.362;2023-03-25T06:57:16;1.73;;;0.90;;
11588;SDS011;5850;51.360;12.362;2023-03-25T06:59:45;1.40;;;0.90;;
11588;SDS011;5850;51.360;12.362;2023-03-25T07:02:14;0.97;;;0.80;;
11588;SDS011;5850;51.360;12.362;2023-03-25T07:04:43;2.53;;;0.97;;
11588;SDS011;5850;51.360;12.362;2023-03-25T07:07:11;1.80;;;0.77;;
11588;SDS011;5850;51.360;12.362;2023-03-25T07:09:39;1.03;;;0.63;;
11588;SDS011;5850;51.360;12.362;2023-03-25T07:12:08;2.57;;;0.83;;
11588;SDS011;5850;51.360;12.362;2023-03-25T07:14:36;3.03;;;0.87;;
11588;SDS011;5850;51.360;12.362;2023-03-25T07:17:05;1.43;;;0.90;;
11588;SDS011;5850;51.360;12.362;2023-03-25T07:19:34;1.20;;;0.80;;
11588;SDS011;5850;51.360;12.362;2023-03-25T07:22:02;1.77;;;0.70;;
11588;SDS011;5850;51.360;12.362;2023-03-25T07:24:30;1.13;;;0.83;;
11588;SDS011;5850;51.360;12.362;2023-03-25T07:26:59;2.17;;;0.87;;
11588;SDS011;5850;51.360;12.362;2023-03-25T07:29:27;2.43;;;0.90;;
11588;SDS011;5850;51.360;12.362;2023-03-25T07:31:56;2.23;;;0.77;;
11588;SDS011;5850;51.360;12.362;2023-03-25T07:34:25;4.33;;;0.87;;
11588;SDS011;5850;51.360;12.362;2023-03-25T07:36:53;2.07;;;0.73;;
11588;SDS011;5850;51.360;12.362;2023-03-25T07:39:22;1.70;;;0.90;;
11588;SDS011;5850;51.360;12.362;2023-03-25T07:41:51;0.77;;;0.60;;
11588;SDS011;5850;51.360;12.362;2023-03-25T07:44:19;0.70;;;0.60;;
11588;SDS011;5850;51.360;12.362;2023-03-25T07:46:48;0.87;;;0.50;;
11588;SDS011;5850;51.360;12.362;2023-03-25T07:49:16;1.43;;;0.87;;
11588;SDS011;5850;51.360;12.362;2023-03-25T07:51:45;2.03;;;0.80;;
11588;SDS011;5850;51.360;12.362;2023-03-25T07:54:14;1.90;;;0.70;;
11588;SDS011;5850;51.360;12.362;2023-03-25T07:56:42;2.30;;;0.93;;
11588;SDS011;5850;51.360;12.362;2023-03-25T07:59:11;1.43;;;0.90;;
11588;SDS011;5850;51.360;12.362;2023-03-25T08:01:39;1.67;;;0.80;;
11588;SDS011;5850;51.360;12.362;2023-03-25T08:04:08;2.30;;;1.03;;
11588;SDS011;5850;51.360;12.362;2023-03-25T08:06:39;0.87;;;0.70;;
11588;SDS011;5850;51.360;12.362;2023-03-25T08:09:07;1.63;;;0.73;;
11588;SDS011;5850;51.360;12.362;2023-03-25T08:11:37;1.03;;;0.67;;
11588;SDS011;5850;51.360;12.362;2023-03-25T08:14:05;2.23;;;0.90;;
11588;SDS011;5850;51.360;12.362;2023-03-25T08:16:34;0.93;;;0.70;;
11588;SDS011;5850;51.360;12.362;2023-03-25T08:19:02;2.10;;;0.90;;
11588;SDS011;5850;51.360;12.362;2023-03-25T08:21:31;1.37;;;0.80;;
11588;SDS011;5850;51.360;12.362;2023-03-25T08:24:00;2.70;;;1.00;;
11588;SDS011;5850;51.360;12.362;2023-03-25T08:26:31;1.37;;;0.63;;
11588;SDS011;5850;51.360;12.362;2023-03-25T08:29:00;1.33;;;0.80;;
11588;SDS011;5850;51.360;12.362;2023-03-25T08:31:32;2.03;;;0.93;;
11588;SDS011;5850;51.360;12.362;2023-03-25T08:34:04;0.83;;;0.83;;
11588;SDS011;5850;51.360;12.362;2023-03-25T08:36:32;0.83;;;0.67;;
11588;SDS011;5850;51.360;12.362;2023-03-25T08:39:05;0.73;;;0.63;;
11588;SDS011;5850;51.360;12.362;2023-03-25T08:41:37;0.60;;;0.60;;
11588;SDS011;5850;51.360;12.362;2023-03-25T08:44:06;2.30;;;0.63;;
11588;SDS011;5850;51.360;12.362;2023-03-25T08:46:34;0.67;;;0.67;;
11588;SDS011;5850;51.360;12.362;2023-03-25T08:49:03;2.73;;;0.90;;
11588;SDS011;5850;51.360;12.362;2023-03-25T08:51:32;0.87;;;0.87;;
11588;SDS011;5850;51.360;12.362;2023-03-25T08:54:00;2.50;;;0.70;;
11588;SDS011;5850;51.360;12.362;2023-03-25T08:56:29;1.17;;;1.00;;
11588;SDS011;5850;51.360;12.362;2023-03-25T09:01:31;0.83;;;0.70;;
11588;SDS011;5850;51.360;12.362;2023-03-25T09:03:59;0.97;;;0.80;;
11588;SDS011;5850;51.360;12.362;2023-03-25T09:06:28;2.07;;;0.70;;
11588;SDS011;5850;51.360;12.362;2023-03-25T09:09:14;2.30;;;1.57;;
11588;SDS011;5850;51.360;12.362;2023-03-25T09:11:43;1.07;;;0.77;;
11588;SDS011;5850;51.360;12.362;2023-03-25T09:14:11;2.00;;;0.90;;
11588;SDS011;5850;51.360;12.362;2023-03-25T09:16:40;1.77;;;0.80;;
11588;SDS011;5850;51.360;12.362;2023-03-25T09:19:08;1.67;;;1.00;;
11588;SDS011;5850;51.360;12.362;2023-03-25T09:21:37;6.77;;;1.00;;
11588;SDS011;5850;51.360;12.362;2023-03-25T09:24:06;2.27;;;1.07;;
11588;SDS011;5850;51.360;12.362;2023-03-25T09:26:35;1.40;;;0.93;;
11588;SDS011;5850;51.360;12.362;2023-03-25T09:29:04;3.03;;;0.83;;
11588;SDS011;5850;51.360;12.362;2023-03-25T09:31:32;1.73;;;0.80;;
11588;SDS011;5850;51.360;12.362;2023-03-25T09:34:01;3.73;;;0.87;;
11588;SDS011;5850;51.360;12.362;2023-03-25T09:36:29;1.30;;;0.70;;
11588;SDS011;5850;51.360;12.362;2023-03-25T09:38:58;2.63;;;0.70;;
11588;SDS011;5850;51.360;12.362;2023-03-25T09:47:05;1.37;;;1.00;;
11588;SDS011;5850;51.360;12.362;2023-03-25T09:49:42;2.57;;;1.00;;
11588;SDS011;5850;51.360;12.362;2023-03-25T09:52:19;2.70;;;0.97;;
11588;SDS011;5850;51.360;12.362;2023-03-25T09:54:58;0.90;;;0.90;;
11588;SDS011;5850;51.360;12.362;2023-03-25T09:57:35;2.33;;;1.10;;
11588;SDS011;5850;51.360;12.362;2023-03-25T10:00:18;1.30;;;0.80;;
11588;SDS011;5850;51.360;12.362;2023-03-25T10:02:53;1.53;;;0.80;;
11588;SDS011;5850;51.360;12.362;2023-03-25T10:08:23;2.17;;;1.20;;
11588;SDS011;5850;51.360;12.362;2023-03-25T10:14:09;1.43;;;0.93;;
11588;SDS011;5850;51.360;12.362;2023-03-25T10:20:15;3.07;;;0.90;;
11588;SDS011;5850;51.360;12.362;2023-03-25T10:25:28;1.03;;;0.60;;
11588;SDS011;5850;51.360;12.362;2023-03-25T10:28:00;0.67;;;0.67;;
11588;SDS011;5850;51.360;12.362;2023-03-25T10:30:38;2.40;;;0.90;;
11588;SDS011;5850;51.360;12.362;2023-03-25T10:33:56;1.23;;;0.60;;
11588;SDS011;5850;51.360;12.362;2023-03-25T10:36:11;1.57;;;0.80;;
11588;SDS011;5850;51.360;12.362;2023-03-25T10:38:45;1.23;;;0.60;;
11588;SDS011;5850;51.360;12.362;2023-03-25T10:41:26;1.13;;;0.77;;
11588;SDS011;5850;51.360;12.362;2023-03-25T10:44:08;0.70;;;0.70;;
11588;SDS011;5850;51.360;12.362;2023-03-25T10:46:57;0.53;;;0.53;;
11588;SDS011;5850;51.360;12.362;2023-03-25T10:49:30;4.93;;;0.50;;
11588;SDS011;5850;51.360;12.362;2023-03-25T10:51:59;1.53;;;0.90;;
11588;SDS011;5850;51.360;12.362;2023-03-25T10:54:33;1.73;;;0.97;;
11588;SDS011;5850;51.360;12.362;2023-03-25T10:57:09;1.03;;;0.77;;
11588;SDS011;5850;51.360;12.362;2023-03-25T11:00:12;2.60;;;1.30;;
11588;SDS011;5850;51.360;12.362;2023-03-25T11:02:45;2.87;;;0.90;;
11588;SDS011;5850;51.360;12.362;2023-03-25T11:05:15;0.87;;;0.80;;
11588;SDS011;5850;51.360;12.362;2023-03-25T11:07:50;2.73;;;1.00;;
11588;SDS011;5850;51.360;12.362;2023-03-25T11:10:25;1.73;;;1.00;;
11588;SDS011;5850;51.360;12.362;2023-03-25T11:12:57;2.30;;;0.90;;
11588;SDS011;5850;51.360;12.362;2023-03-25T11:15:32;1.93;;;0.80;;
11588;SDS011;5850;51.360;12.362;2023-03-25T11:20:49;3.37;;;1.00;;
11588;SDS011;5850;51.360;12.362;2023-03-25T11:23:32;1.40;;;0.83;;
11588;SDS011;5850;51.360;12.362;2023-03-25T11:26:15;3.57;;;0.90;;
11588;SDS011;5850;51.360;12.362;2023-03-25T11:28:55;1.20;;;0.77;;
11588;SDS011;5850;51.360;12.362;2023-03-25T11:31:37;1.57;;;0.90;;
11588;SDS011;5850;51.360;12.362;2023-03-25T11:39:39;1.77;;;0.90;;
11588;SDS011;5850;51.360;12.362;2023-03-25T11:42:31;1.87;;;0.80;;
11588;SDS011;5850;51.360;12.362;2023-03-25T11:45:21;1.77;;;1.00;;
11588;SDS011;5850;51.360;12.362;2023-03-25T11:48:01;2.53;;;1.03;;
11588;SDS011;5850;51.360;12.362;2023-03-25T11:50:48;4.37;;;1.37;;
11588;SDS011;5850;51.360;12.362;2023-03-25T11:53:24;2.47;;;0.83;;
11588;SDS011;5850;51.360;12.362;2023-03-25T11:55:54;0.70;;;0.70;;
11588;SDS011;5850;51.360;12.362;2023-03-25T11:58:27;1.00;;;0.80;;
11588;SDS011;5850;51.360;12.362;2023-03-25T12:01:00;2.87;;;0.80;;
11588;SDS011;5850;51.360;12.362;2023-03-25T12:03:43;3.83;;;0.60;;
11588;SDS011;5850;51.360;12.362;2023-03-25T12:06:17;1.03;;;0.60;;
11588;SDS011;5850;51.360;12.362;2023-03-25T12:08:49;1.37;;;0.73;;
11588;SDS011;5850;51.360;12.362;2023-03-25T12:11:27;2.70;;;0.90;;
11588;SDS011;5850;51.360;12.362;2023-03-25T12:14:32;2.37;;;0.87;;
11588;SDS011;5850;51.360;12.362;2023-03-25T12:17:44;2.70;;;1.10;;
11588;SDS011;5850;51.360;12.362;2023-03-25T12:29:40;1.53;;;0.80;;
11588;SDS011;5850;51.360;12.362;2023-03-25T12:32:29;1.23;;;0.63;;
11588;SDS011;5850;51.360;12.362;2023-03-25T12:35:22;1.60;;;0.73;;
11588;SDS011;5850;51.360;12.362;2023-03-25T12:50:10;1.73;;;0.80;;
11588;SDS011;5850;51.360;12.362;2023-03-25T12:53:26;1.03;;;0.60;;
11588;SDS011;5850;51.360;12.362;2023-03-25T13:08:03;1.80;;;1.10;;
11588;SDS011;5850;51.360;12.362;2023-03-25T13:10:41;2.53;;;1.50;;
11588;SDS011;5850;51.360;12.362;2023-03-25T13:13:14;3.37;;;1.10;;
11588;SDS011;5850;51.360;12.362;2023-03-25T13:15:47;2.97;;;1.10;;
11588;SDS011;5850;51.360;12.362;2023-03-25T13:18:32;1.60;;;0.90;;
11588;SDS011;5850;51.360;12.362;2023-03-25T13:21:20;2.30;;;0.90;;
11588;SDS011;5850;51.360;12.362;2023-03-25T13:23:59;1.80;;;0.83;;
11588;SDS011;5850;51.360;12.362;2023-03-25T13:26:32;2.00;;;0.83;;
11588;SDS011;5850;51.360;12.362;2023-03-25T13:29:03;1.70;;;0.90;;
11588;SDS011;5850;51.360;12.362;2023-03-25T13:31:40;1.40;;;0.60;;
11588;SDS011;5850;51.360;12.362;2023-03-25T13:37:03;1.50;;;0.60;;
11588;SDS011;5850;51.360;12.362;2023-03-25T13:39:58;0.83;;;0.57;;
11588;SDS011;5850;51.360;12.362;2023-03-25T13:48:59;1.17;;;0.80;;
11588;SDS011;5850;51.360;12.362;2023-03-25T13:52:01;2.20;;;0.80;;
11588;SDS011;5850;51.360;12.362;2023-03-25T13:57:27;2.07;;;1.03;;
11588;SDS011;5850;51.360;12.362;2023-03-25T14:15:08;1.40;;;0.87;;
11588;SDS011;5850;51.360;12.362;2023-03-25T14:17:50;2.17;;;1.00;;
11588;SDS011;5850;51.360;12.362;2023-03-25T14:20:21;1.50;;;1.03;;
11588;SDS011;5850;51.360;12.362;2023-03-25T14:23:15;2.10;;;0.97;;
11588;SDS011;5850;51.360;12.362;2023-03-25T14:25:53;1.17;;;0.93;;
11588;SDS011;5850;51.360;12.362;2023-03-25T14:28:41;2.17;;;1.00;;
11588;SDS011;5850;51.360;12.362;2023-03-25T14:39:49;3.00;;;1.10;;
11588;SDS011;5850;51.360;12.362;2023-03-25T14:44:36;1.47;;;1.20;;
11588;SDS011;5850;51.360;12.362;2023-03-25T14:49:53;1.70;;;1.00;;
11588;SDS011;5850;51.360;12.362;2023-03-25T14:52:54;3.63;;;1.10;;
11588;SDS011;5850;51.360;12.362;2023-03-25T14:55:27;2.10;;;1.10;;
11588;SDS011;5850;51.360;12.362;2023-03-25T14:58:25;1.17;;;0.73;;
11588;SDS011;5850;51.360;12.362;2023-03-25T15:01:01;1.93;;;1.13;;
11588;SDS011;5850;51.360;12.362;2023-03-25T15:03:36;1.93;;;1.00;;
11588;SDS011;5850;51.360;12.362;2023-03-25T15:06:16;1.60;;;1.00;;
11588;SDS011;5850;51.360;12.362;2023-03-25T15:08:56;3.73;;;1.43;;
11588;SDS011;5850;51.360;12.362;2023-03-25T15:11:30;1.37;;;0.90;;
11588;SDS011;5850;51.360;12.362;2023-03-25T15:14:04;2.13;;;1.10;;
11588;SDS011;5850;51.360;12.362;2023-03-25T15:19:15;3.53;;;0.90;;
11588;SDS011;5850;51.360;12.362;2023-03-25T15:24:29;3.23;;;1.10;;
11588;SDS011;5850;51.360;12.362;2023-03-25T15:27:00;1.63;;;1.17;;
11588;SDS011;5850;51.360;12.362;2023-03-25T15:35:41;2.57;;;1.13;;
11588;SDS011;5850;51.360;12.362;2023-03-25T15:38:43;1.97;;;1.07;;
11588;SDS011;5850;51.360;12.362;2023-03-25T15:51:54;1.87;;;1.20;;
11588;SDS011;5850;51.360;12.362;2023-03-25T15:54:03;4.00;;;0.97;;
11588;SDS011;5850;51.360;12.362;2023-03-25T15:56:47;1.93;;;0.93;;
11588;SDS011;5850;51.360;12.362;2023-03-25T16:01:48;2.07;;;1.27;;
11588;SDS011;5850;51.360;12.362;2023-03-25T16:07:20;3.33;;;1.20;;
11588;SDS011;5850;51.360;12.362;2023-03-25T16:09:55;2.07;;;1.00;;
11588;SDS011;5850;51.360;12.362;2023-03-25T16:12:32;1.93;;;0.90;;
11588;SDS011;5850;51.360;12.362;2023-03-25T16:15:03;3.10;;;1.17;;
11588;SDS011;5850;51.360;12.362;2023-03-25T16:17:33;2.17;;;1.00;;
11588;SDS011;5850;51.360;12.362;2023-03-25T16:20:02;1.00;;;0.70;;
11588;SDS011;5850;51.360;12.362;2023-03-25T16:22:33;4.00;;;1.00;;
11588;SDS011;5850;51.360;12.362;2023-03-25T16:25:04;4.30;;;1.00;;
11588;SDS011;5850;51.360;12.362;2023-03-25T16:27:41;1.73;;;0.90;;
11588;SDS011;5850;51.360;12.362;2023-03-25T16:30:25;4.00;;;1.00;;
11588;SDS011;5850;51.360;12.362;2023-03-25T16:35:46;1.40;;;0.90;;
11588;SDS011;5850;51.360;12.362;2023-03-25T16:38:26;1.73;;;0.80;;
11588;SDS011;5850;51.360;12.362;2023-03-25T16:41:12;1.70;;;0.87;;
11588;SDS011;5850;51.360;12.362;2023-03-25T16:43:41;3.53;;;1.00;;
11588;SDS011;5850;51.360;12.362;2023-03-25T16:46:10;1.57;;;0.83;;
11588;SDS011;5850;51.360;12.362;2023-03-25T16:48:41;3.13;;;1.00;;
11588;SDS011;5850;51.360;12.362;2023-03-25T16:54:00;1.87;;;0.80;;
11588;SDS011;5850;51.360;12.362;2023-03-25T16:56:37;2.10;;;1.20;;
11588;SDS011;5850;51.360;12.362;2023-03-25T16:59:06;5.27;;;1.00;;
11588;SDS011;5850;51.360;12.362;2023-03-25T17:01:50;3.10;;;1.00;;
11588;SDS011;5850;51.360;12.362;2023-03-25T17:04:22;2.10;;;0.83;;
11588;SDS011;5850;51.360;12.362;2023-03-25T17:06:59;1.17;;;0.80;;
11588;SDS011;5850;51.360;12.362;2023-03-25T17:09:34;2.60;;;0.90;;
11588;SDS011;5850;51.360;12.362;2023-03-25T17:12:08;1.00;;;0.90;;
11588;SDS011;5850;51.360;12.362;2023-03-25T17:14:43;2.47;;;0.80;;
11588;SDS011;5850;51.360;12.362;2023-03-25T17:19:50;2.87;;;1.23;;
11588;SDS011;5850;51.360;12.362;2023-03-25T17:25:15;1.43;;;0.97;;
11588;SDS011;5850;51.360;12.362;2023-03-25T17:30:54;3.20;;;1.00;;
11588;SDS011;5850;51.360;12.362;2023-03-25T17:33:35;3.13;;;1.20;;
11588;SDS011;5850;51.360;12.362;2023-03-25T17:36:09;4.97;;;0.80;;
11588;SDS011;5850;51.360;12.362;2023-03-25T17:38:41;2.80;;;1.10;;
11588;SDS011;5850;51.360;12.362;2023-03-25T17:41:13;4.03;;;1.10;;
11588;SDS011;5850;51.360;12.362;2023-03-25T17:43:45;3.93;;;1.30;;
11588;SDS011;5850;51.360;12.362;2023-03-25T17:46:27;3.50;;;1.20;;
11588;SDS011;5850;51.360;12.362;2023-03-25T17:49:00;2.90;;;1.23;;
11588;SDS011;5850;51.360;12.362;2023-03-25T17:51:28;1.43;;;0.93;;
11588;SDS011;5850;51.360;12.362;2023-03-25T17:53:57;1.40;;;0.90;;
11588;SDS011;5850;51.360;12.362;2023-03-25T17:56:27;2.73;;;1.40;;
11588;SDS011;5850;51.360;12.362;2023-03-25T17:58:59;1.37;;;0.83;;
11588;SDS011;5850;51.360;12.362;2023-03-25T18:01:44;4.10;;;1.03;;
11588;SDS011;5850;51.360;12.362;2023-03-25T18:04:15;2.50;;;0.93;;
11588;SDS011;5850;51.360;12.362;2023-03-25T18:06:47;2.10;;;0.90;;
11588;SDS011;5850;51.360;12.362;2023-03-25T18:09:20;2.77;;;1.10;;
11588;SDS011;5850;51.360;12.362;2023-03-25T18:11:52;3.27;;;1.20;;
11588;SDS011;5850;51.360;12.362;2023-03-25T18:14:23;1.23;;;0.90;;
11588;SDS011;5850;51.360;12.362;2023-03-25T18:16:52;2.70;;;1.20;;
11588;SDS011;5850;51.360;12.362;2023-03-25T18:19:22;2.07;;;1.10;;
11588;SDS011;5850;51.360;12.362;2023-03-25T18:21:53;1.30;;;0.73;;
11588;SDS011;5850;51.360;12.362;2023-03-25T18:24:27;1.50;;;0.97;;
11588;SDS011;5850;51.360;12.362;2023-03-25T18:26:55;2.27;;;1.40;;
11588;SDS011;5850;51.360;12.362;2023-03-25T18:29:24;2.20;;;1.27;;
11588;SDS011;5850;51.360;12.362;2023-03-25T18:31:54;1.50;;;1.00;;
11588;SDS011;5850;51.360;12.362;2023-03-25T18:34:23;3.67;;;1.33;;
11588;SDS011;5850;51.360;12.362;2023-03-25T18:36:55;2.10;;;1.00;;
11588;SDS011;5850;51.360;12.362;2023-03-25T18:39:33;1.00;;;0.90;;
11588;SDS011;5850;51.360;12.362;2023-03-25T18:42:01;4.37;;;1.20;;
11588;SDS011;5850;51.360;12.362;2023-03-25T18:44:30;0.90;;;0.90;;
11588;SDS011;5850;51.360;12.362;2023-03-25T18:46:58;1.83;;;0.80;;
11588;SDS011;5850;51.360;12.362;2023-03-25T18:49:26;1.80;;;1.10;;
11588;SDS011;5850;51.360;12.362;2023-03-25T18:51:54;1.47;;;1.23;;
11588;SDS011;5850;51.360;12.362;2023-03-25T18:54:24;1.07;;;0.87;;
11588;SDS011;5850;51.360;12.362;2023-03-25T18:56:53;2.97;;;1.30;;
11588;SDS011;5850;51.360;12.362;2023-03-25T18:59:22;1.70;;;0.90;;
11588;SDS011;5850;51.360;12.362;2023-03-25T19:01:50;2.73;;;1.30;;
11588;SDS011;5850;51.360;12.362;2023-03-25T19:04:19;1.43;;;1.00;;
11588;SDS011;5850;51.360;12.362;2023-03-25T19:06:47;2.03;;;1.10;;
11588;SDS011;5850;51.360;12.362;2023-03-25T19:09:17;3.03;;;1.27;;
11588;SDS011;5850;51.360;12.362;2023-03-25T19:11:48;3.73;;;1.77;;
11588;SDS011;5850;51.360;12.362;2023-03-25T19:14:16;3.00;;;1.20;;